Hanjin Santana — 3EYU3 — position and weather

sailwx.info

Track history (hours):
 
Tides and Currents Weather Stations Pressure Air Temp Water Temp Dewpoint Dewpoint Depression Visibility Wind Speed Wind Dir Waves Ship Positions

Hanjin Santana

Last reported at 2015-Aug-10 14:24 UTC. Time now 2015-Aug-30 19:58 UTC.
Position N 37°34' E 123°46'.
Warning: this ship's position is 20 days out of date.

Length 196 m; draft 6.7 m.

Type: Cargo ship. MMSI: 373673000.

Date/timePositionNaut miles runAvg speedWind from/ knotsBaromVisibWave heightAir tempDewpointWater temp
2015-Aug-10 14:24N 37°34' E 123°46'41 3.4
2015-Aug-10 02:20N 38°13' E 123°29'5 0.4
2015-Aug-09 14:12N 38°18' E 123°29'7 0.3
2015-Aug-08 12:27N 38°14' E 123°22'1 1.2
2015-Aug-08 11:33N 38°15' E 123°21'52 6.2
2015-Aug-08 03:10N 38°23' E 122°15'813.5
2015-Aug-08 02:33N 38°23' E 122°05'1313.3
2015-Aug-08 01:33N 38°24' E 121°48'1312.9
2015-Aug-08 00:31N 38°26' E 121°31'114 8.7
2015-Aug-07 11:25N 40°18' E 121°59'4 5.2
2015-Aug-07 10:33N 40°19' E 122°05'0 0.0
2015-Aug-07 07:13N 40°19' E 122°05'0 0.0
2015-Aug-07 05:13N 40°19' E 122°05'0 0.0
2015-Aug-07 02:31N 40°19' E 122°05'0 0.0
2015-Aug-06 15:31N 40°19' E 122°05'0 0.0
2015-Aug-06 10:19N 40°19' E 122°05'0 0.0
2015-Aug-06 09:19N 40°19' E 122°05'0 0.0
2015-Aug-06 06:25N 40°19' E 122°05'0 0.0
2015-Aug-06 05:07N 40°19' E 122°05'0 0.0
2015-Aug-06 02:31N 40°19' E 122°05'0 0.0
2015-Aug-06 00:31N 40°19' E 122°05'0 0.0
2015-Aug-05 22:25N 40°19' E 122°05'0 0.0
2015-Aug-05 21:13N 40°19' E 122°05'0 0.0
2015-Aug-05 17:25N 40°19' E 122°05'0 0.0
2015-Aug-05 15:25N 40°19' E 122°05'0 0.0
2015-Aug-05 14:13N 40°19' E 122°05'0 0.0
2015-Aug-05 13:31N 40°19' E 122°05'0 0.0
2015-Aug-05 12:19N 40°19' E 122°05'0 0.0
2015-Aug-05 11:31N 40°19' E 122°05'0 0.0
2015-Aug-05 06:19N 40°19' E 122°05'0 0.0
2015-Aug-05 04:31N 40°19' E 122°05'0 0.0
2015-Aug-05 03:31N 40°19' E 122°05'0 0.0
2015-Aug-04 19:31N 40°19' E 122°05'0 0.0
2015-Aug-04 18:25N 40°19' E 122°05'0 0.0
2015-Aug-04 15:25N 40°19' E 122°05'0 0.0
2015-Aug-04 14:25N 40°19' E 122°05'0 0.0
2015-Aug-04 11:07N 40°19' E 122°05'0 0.2
2015-Aug-04 09:31N 40°18' E 122°04'151 6.2
2015-Aug-03 09:14N 37°50' E 122°36'710.9
2015-Aug-03 08:33N 37°46' E 122°44'22 9.7
2015-Aug-03 06:20N 37°35' E 123°08'28611.0
2015-Aug-02 04:11N 32°51' E 123°52'4211.3
2015-Aug-02 00:31N 32°10' E 123°56'1010.0
2015-Aug-01 23:33N 32°00' E 123°57'53 9.7
2015-Aug-01 18:05N 31°07' E 123°55'3112.1
2015-Aug-01 15:32N 30°37' E 123°48'1212.4
2015-Aug-01 14:32N 30°25' E 123°44'2912.3
2015-Aug-01 12:10N 29°56' E 123°40'  
Track history (hours):
 
Tides and Currents Weather Stations Pressure Air Temp Water Temp Dewpoint Dewpoint Depression Visibility Wind Speed Wind Dir Waves Ship Positions

Hanjin Santana

Last reported at 2015-Aug-10 14:24 UTC. Time now 2015-Aug-30 19:58 UTC.
Position N 37°34' E 123°46'.
Warning: this ship's position is 20 days out of date.

Length 196 m; draft 6.7 m.

Type: Cargo ship. MMSI: 373673000.

Date/timePositionNaut miles runAvg speedWind from/ knotsBaromVisibWave heightAir tempDewpointWater temp
2015-Aug-10 14:24N 37°34' E 123°46'41 3.4
2015-Aug-10 02:20N 38°13' E 123°29'5 0.4
2015-Aug-09 14:12N 38°18' E 123°29'7 0.3
2015-Aug-08 12:27N 38°14' E 123°22'1 1.2
2015-Aug-08 11:33N 38°15' E 123°21'52 6.2
2015-Aug-08 03:10N 38°23' E 122°15'813.5
2015-Aug-08 02:33N 38°23' E 122°05'1313.3
2015-Aug-08 01:33N 38°24' E 121°48'1312.9
2015-Aug-08 00:31N 38°26' E 121°31'114 8.7
2015-Aug-07 11:25N 40°18' E 121°59'4 5.2
2015-Aug-07 10:33N 40°19' E 122°05'0 0.0
2015-Aug-07 07:13N 40°19' E 122°05'0 0.0
2015-Aug-07 05:13N 40°19' E 122°05'0 0.0
2015-Aug-07 02:31N 40°19' E 122°05'0 0.0
2015-Aug-06 15:31N 40°19' E 122°05'0 0.0
2015-Aug-06 10:19N 40°19' E 122°05'0 0.0
2015-Aug-06 09:19N 40°19' E 122°05'0 0.0
2015-Aug-06 06:25N 40°19' E 122°05'0 0.0
2015-Aug-06 05:07N 40°19' E 122°05'0 0.0
2015-Aug-06 02:31N 40°19' E 122°05'0 0.0
2015-Aug-06 00:31N 40°19' E 122°05'0 0.0
2015-Aug-05 22:25N 40°19' E 122°05'0 0.0
2015-Aug-05 21:13N 40°19' E 122°05'0 0.0
2015-Aug-05 17:25N 40°19' E 122°05'0 0.0
2015-Aug-05 15:25N 40°19' E 122°05'0 0.0
2015-Aug-05 14:13N 40°19' E 122°05'0 0.0
2015-Aug-05 13:31N 40°19' E 122°05'0 0.0
2015-Aug-05 12:19N 40°19' E 122°05'0 0.0
2015-Aug-05 11:31N 40°19' E 122°05'0 0.0
2015-Aug-05 06:19N 40°19' E 122°05'0 0.0
2015-Aug-05 04:31N 40°19' E 122°05'0 0.0
2015-Aug-05 03:31N 40°19' E 122°05'0 0.0
2015-Aug-04 19:31N 40°19' E 122°05'0 0.0
2015-Aug-04 18:25N 40°19' E 122°05'0 0.0
2015-Aug-04 15:25N 40°19' E 122°05'0 0.0
2015-Aug-04 14:25N 40°19' E 122°05'0 0.0
2015-Aug-04 11:07N 40°19' E 122°05'0 0.2
2015-Aug-04 09:31N 40°18' E 122°04'151 6.2
2015-Aug-03 09:14N 37°50' E 122°36'710.9
2015-Aug-03 08:33N 37°46' E 122°44'22 9.7
2015-Aug-03 06:20N 37°35' E 123°08'28611.0
2015-Aug-02 04:11N 32°51' E 123°52'4211.3
2015-Aug-02 00:31N 32°10' E 123°56'1010.0
2015-Aug-01 23:33N 32°00' E 123°57'53 9.7
2015-Aug-01 18:05N 31°07' E 123°55'3112.1
2015-Aug-01 15:32N 30°37' E 123°48'1212.4
2015-Aug-01 14:32N 30°25' E 123°44'2912.3
2015-Aug-01 12:10N 29°56' E 123°40'  

Dump ship's entire track history